sensor_id;sensor_type;location;lat;lon;timestamp;pressure;altitude;pressure_sealevel;temperature;humidity
59029;BME280;45919;51.420;5.454;2022-12-11T00:00:41;101029.09;;;2.75;78.78
59029;BME280;45919;51.420;5.454;2022-12-11T00:01:43;100991.84;;;2.52;78.99
59029;BME280;45919;51.420;5.454;2022-12-11T00:02:44;101024.91;;;2.78;78.77
59029;BME280;45919;51.420;5.454;2022-12-11T00:03:47;101025.88;;;2.80;78.76
59029;BME280;45919;51.420;5.454;2022-12-11T00:04:48;101014.66;;;2.79;78.50
59029;BME280;45919;51.420;5.454;2022-12-11T00:05:50;101027.69;;;2.82;79.06
59029;BME280;45919;51.420;5.454;2022-12-11T00:06:52;101023.44;;;2.83;78.91
59029;BME280;45919;51.420;5.454;2022-12-11T00:07:54;101020.84;;;2.83;78.81
59029;BME280;45919;51.420;5.454;2022-12-11T00:08:55;101020.03;;;2.84;78.74
59029;BME280;45919;51.420;5.454;2022-12-11T00:09:57;101019.16;;;2.83;78.61
59029;BME280;45919;51.420;5.454;2022-12-11T00:10:59;100954.69;;;2.48;78.38
59029;BME280;45919;51.420;5.454;2022-12-11T00:12:01;101017.38;;;2.82;78.28
59029;BME280;45919;51.420;5.454;2022-12-11T00:13:05;101018.34;;;2.84;78.35
59029;BME280;45919;51.420;5.454;2022-12-11T00:14:07;100975.78;;;2.58;78.71
59029;BME280;45919;51.420;5.454;2022-12-11T00:15:09;101020.03;;;2.84;78.65
59029;BME280;45919;51.420;5.454;2022-12-11T00:16:10;101005.06;;;2.77;78.50
59029;BME280;45919;51.420;5.454;2022-12-11T00:17:12;101018.19;;;2.81;78.46
59029;BME280;45919;51.420;5.454;2022-12-11T00:18:14;101013.94;;;2.82;78.30
59029;BME280;45919;51.420;5.454;2022-12-11T00:19:15;100983.16;;;2.68;78.44
59029;BME280;45919;51.420;5.454;2022-12-11T00:20:17;101012.41;;;2.85;78.30
59029;BME280;45919;51.420;5.454;2022-12-11T00:21:18;101006.28;;;2.83;78.47
59029;BME280;45919;51.420;5.454;2022-12-11T00:22:20;101009.63;;;2.82;78.77
59029;BME280;45919;51.420;5.454;2022-12-11T00:23:21;101011.44;;;2.83;78.33
59029;BME280;45919;51.420;5.454;2022-12-11T00:24:23;101008.09;;;2.86;78.45
59029;BME280;45919;51.420;5.454;2022-12-11T00:25:25;101006.41;;;2.86;78.26
59029;BME280;45919;51.420;5.454;2022-12-11T00:26:26;100993.81;;;2.74;78.59
59029;BME280;45919;51.420;5.454;2022-12-11T00:27:28;101010.75;;;2.87;78.15
59029;BME280;45919;51.420;5.454;2022-12-11T00:28:30;101011.72;;;2.90;78.57
59029;BME280;45919;51.420;5.454;2022-12-11T00:29:31;100985.09;;;2.72;78.72
59029;BME280;45919;51.420;5.454;2022-12-11T00:30:33;101007.38;;;2.89;78.47
59029;BME280;45919;51.420;5.454;2022-12-11T00:31:34;100951.53;;;2.54;78.76
59029;BME280;45919;51.420;5.454;2022-12-11T00:32:36;100987.75;;;2.74;78.29
59029;BME280;45919;51.420;5.454;2022-12-11T00:33:38;101011.56;;;2.86;78.31
59029;BME280;45919;51.420;5.454;2022-12-11T00:34:39;101014.09;;;2.85;78.47
59029;BME280;45919;51.420;5.454;2022-12-11T00:35:43;101009.00;;;2.86;78.21
59029;BME280;45919;51.420;5.454;2022-12-11T00:36:45;101008.03;;;2.84;78.47
59029;BME280;45919;51.420;5.454;2022-12-11T00:37:47;101012.28;;;2.84;78.38
59029;BME280;45919;51.420;5.454;2022-12-11T00:38:48;100974.38;;;2.65;78.77
59029;BME280;45919;51.420;5.454;2022-12-11T00:39:50;101010.69;;;2.86;78.65
59029;BME280;45919;51.420;5.454;2022-12-11T00:40:52;101009.72;;;2.84;78.74
59029;BME280;45919;51.420;5.454;2022-12-11T00:41:53;101012.41;;;2.85;78.48
59029;BME280;45919;51.420;5.454;2022-12-11T00:42:55;101011.50;;;2.85;78.85
59029;BME280;45919;51.420;5.454;2022-12-11T00:43:57;100973.56;;;2.66;78.57
59029;BME280;45919;51.420;5.454;2022-12-11T00:44:58;101009.81;;;2.85;78.44
59029;BME280;45919;51.420;5.454;2022-12-11T00:46:01;100935.41;;;2.42;78.92
59029;BME280;45919;51.420;5.454;2022-12-11T00:47:03;101003.13;;;2.89;78.50
59029;BME280;45919;51.420;5.454;2022-12-11T00:48:05;100962.13;;;2.60;78.62
59029;BME280;45919;51.420;5.454;2022-12-11T00:49:07;101008.28;;;2.89;78.46
59029;BME280;45919;51.420;5.454;2022-12-11T00:50:08;101005.59;;;2.87;78.25
59029;BME280;45919;51.420;5.454;2022-12-11T00:51:10;101016.00;;;2.89;78.39
59029;BME280;45919;51.420;5.454;2022-12-11T00:52:12;101012.59;;;2.90;78.89
59029;BME280;45919;51.420;5.454;2022-12-11T00:53:13;101014.38;;;2.91;78.52
59029;BME280;45919;51.420;5.454;2022-12-11T00:54:15;101002.22;;;2.89;78.24
59029;BME280;45919;51.420;5.454;2022-12-11T00:55:17;101011.72;;;2.90;78.65
59029;BME280;45919;51.420;5.454;2022-12-11T00:56:20;101005.69;;;2.89;78.51
59029;BME280;45919;51.420;5.454;2022-12-11T00:57:22;101009.97;;;2.89;78.51
59029;BME280;45919;51.420;5.454;2022-12-11T00:58:23;101011.72;;;2.90;78.70
59029;BME280;45919;51.420;5.454;2022-12-11T00:59:27;101006.63;;;2.91;78.69
59029;BME280;45919;51.420;5.454;2022-12-11T01:00:28;101006.56;;;2.90;78.49
59029;BME280;45919;51.420;5.454;2022-12-11T01:01:30;100988.72;;;2.76;78.62
59029;BME280;45919;51.420;5.454;2022-12-11T01:02:32;101005.69;;;2.89;78.55
59029;BME280;45919;51.420;5.454;2022-12-11T01:03:34;101011.66;;;2.88;78.70
59029;BME280;45919;51.420;5.454;2022-12-11T01:04:36;101010.84;;;2.89;78.78
59029;BME280;45919;51.420;5.454;2022-12-11T01:05:38;100977.50;;;2.75;78.81
59029;BME280;45919;51.420;5.454;2022-12-11T01:06:39;100997.78;;;2.86;78.82
59029;BME280;45919;51.420;5.454;2022-12-11T01:07:41;101001.19;;;2.85;78.42
59029;BME280;45919;51.420;5.454;2022-12-11T01:08:43;100995.88;;;2.82;78.85
59029;BME280;45919;51.420;5.454;2022-12-11T01:09:45;101004.72;;;2.87;78.92
59029;BME280;45919;51.420;5.454;2022-12-11T01:11:06;100999.84;;;3.11;79.13
59029;BME280;45919;51.420;5.454;2022-12-11T01:12:08;100986.41;;;2.82;78.63
59029;BME280;45919;51.420;5.454;2022-12-11T01:13:10;101005.75;;;2.91;78.52
59029;BME280;45919;51.420;5.454;2022-12-11T01:14:11;101009.06;;;2.88;78.55
59029;BME280;45919;51.420;5.454;2022-12-11T01:15:13;101004.81;;;2.89;78.72
59029;BME280;45919;51.420;5.454;2022-12-11T01:16:15;101012.41;;;2.85;78.79
59029;BME280;45919;51.420;5.454;2022-12-11T01:17:16;101008.91;;;2.85;79.12
59029;BME280;45919;51.420;5.454;2022-12-11T01:18:18;101009.00;;;2.86;78.75
59029;BME280;45919;51.420;5.454;2022-12-11T01:19:19;101007.22;;;2.85;79.38
59029;BME280;45919;51.420;5.454;2022-12-11T01:20:22;101009.06;;;2.88;78.89
59029;BME280;45919;51.420;5.454;2022-12-11T01:21:25;101006.09;;;2.80;78.80
59029;BME280;45919;51.420;5.454;2022-12-11T01:22:27;100994.00;;;2.79;78.81
59029;BME280;45919;51.420;5.454;2022-12-11T01:23:28;101010.84;;;2.89;78.73
59029;BME280;45919;51.420;5.454;2022-12-11T01:24:30;101014.47;;;2.93;78.89
59029;BME280;45919;51.420;5.454;2022-12-11T01:25:31;101010.09;;;2.92;78.69
59029;BME280;45919;51.420;5.454;2022-12-11T01:26:35;101007.53;;;2.92;78.67
59029;BME280;45919;51.420;5.454;2022-12-11T01:27:37;101006.72;;;2.93;78.56
59029;BME280;45919;51.420;5.454;2022-12-11T01:28:40;101012.81;;;2.95;78.87
59029;BME280;45919;51.420;5.454;2022-12-11T01:29:41;101012.03;;;2.96;78.46
59029;BME280;45919;51.420;5.454;2022-12-11T01:30:43;101005.00;;;2.93;78.54
59029;BME280;45919;51.420;5.454;2022-12-11T01:31:44;100998.97;;;2.93;78.76
59029;BME280;45919;51.420;5.454;2022-12-11T01:32:46;101002.28;;;2.90;78.40
59029;BME280;45919;51.420;5.454;2022-12-11T01:33:48;101006.88;;;2.96;78.53
59029;BME280;45919;51.420;5.454;2022-12-11T01:34:50;101000.88;;;2.97;78.57
59029;BME280;45919;51.420;5.454;2022-12-11T01:35:51;101005.19;;;2.96;78.29
59029;BME280;45919;51.420;5.454;2022-12-11T01:36:53;100972.34;;;2.75;78.54
59029;BME280;45919;51.420;5.454;2022-12-11T01:37:54;101003.41;;;2.95;78.23
59029;BME280;45919;51.420;5.454;2022-12-11T01:38:56;101004.28;;;2.96;78.49
59029;BME280;45919;51.420;5.454;2022-12-11T01:40:00;101003.53;;;2.98;78.46
59029;BME280;45919;51.420;5.454;2022-12-11T01:41:02;101004.34;;;2.97;78.47
59029;BME280;45919;51.420;5.454;2022-12-11T01:42:17;100961.59;;;2.84;78.39
59029;BME280;45919;51.420;5.454;2022-12-11T01:43:19;101001.84;;;2.99;78.26
59029;BME280;45919;51.420;5.454;2022-12-11T01:46:27;100950.34;;;2.66;78.45
59029;BME280;45919;51.420;5.454;2022-12-11T01:47:29;100963.63;;;2.73;78.18
59029;BME280;45919;51.420;5.454;2022-12-11T01:48:31;100964.66;;;2.77;78.53
59029;BME280;45919;51.420;5.454;2022-12-11T01:49:33;100971.13;;;2.85;78.35
59029;BME280;45919;51.420;5.454;2022-12-11T01:50:39;100971.97;;;2.86;78.75
59029;BME280;45919;51.420;5.454;2022-12-11T01:52:50;100988.94;;;2.99;78.53
59029;BME280;45919;51.420;5.454;2022-12-11T01:54:04;100995.44;;;3.09;78.89
59029;BME280;45919;51.420;5.454;2022-12-11T01:55:06;100994.25;;;3.02;78.63
59029;BME280;45919;51.420;5.454;2022-12-11T01:56:09;100993.22;;;2.98;78.48
59029;BME280;45919;51.420;5.454;2022-12-11T01:57:12;100991.38;;;2.96;78.42
59029;BME280;45919;51.420;5.454;2022-12-11T01:58:17;100994.09;;;2.99;78.54
59029;BME280;45919;51.420;5.454;2022-12-11T01:59:22;100931.44;;;2.65;78.30
59029;BME280;45919;51.420;5.454;2022-12-11T02:00:25;100989.53;;;2.93;78.58
59029;BME280;45919;51.420;5.454;2022-12-11T02:01:32;100998.53;;;3.02;78.47
59029;BME280;45919;51.420;5.454;2022-12-11T02:02:35;100997.50;;;2.98;78.18
59029;BME280;45919;51.420;5.454;2022-12-11T02:03:36;100995.72;;;2.97;78.52
59029;BME280;45919;51.420;5.454;2022-12-11T02:04:38;101000.03;;;2.96;78.65
59029;BME280;45919;51.420;5.454;2022-12-11T02:05:42;100979.66;;;2.84;78.79
59029;BME280;45919;51.420;5.454;2022-12-11T02:06:46;100996.69;;;2.99;79.03
59029;BME280;45919;51.420;5.454;2022-12-11T02:07:57;101004.06;;;3.09;78.99
59029;BME280;45919;51.420;5.454;2022-12-11T02:09:00;101002.00;;;3.02;78.61
59029;BME280;45919;51.420;5.454;2022-12-11T02:10:03;100994.34;;;3.04;78.39
59029;BME280;45919;51.420;5.454;2022-12-11T02:11:10;101003.19;;;3.09;78.58
59029;BME280;45919;51.420;5.454;2022-12-11T02:13:43;101004.22;;;3.13;78.53
59029;BME280;45919;51.420;5.454;2022-12-11T02:16:39;101001.94;;;3.19;78.15
59029;BME280;45919;51.420;5.454;2022-12-11T02:18:14;100997.13;;;3.27;78.38
59029;BME280;45919;51.420;5.454;2022-12-11T02:20:37;100995.91;;;3.18;77.84
59029;BME280;45919;51.420;5.454;2022-12-11T02:21:42;100996.50;;;3.13;77.95
59029;BME280;45919;51.420;5.454;2022-12-11T02:22:57;100995.81;;;3.17;78.11
59029;BME280;45919;51.420;5.454;2022-12-11T02:27:53;100997.06;;;3.07;78.17
59029;BME280;45919;51.420;5.454;2022-12-11T02:29:00;100989.53;;;3.11;78.24
59029;BME280;45919;51.420;5.454;2022-12-11T02:30:08;100995.66;;;3.14;78.29
59029;BME280;45919;51.420;5.454;2022-12-11T02:32:26;100986.16;;;3.13;78.03
59029;BME280;45919;51.420;5.454;2022-12-11T02:33:36;100986.22;;;3.14;78.22
59029;BME280;45919;51.420;5.454;2022-12-11T02:34:44;100981.00;;;3.13;78.18
59029;BME280;45919;51.420;5.454;2022-12-11T02:35:47;100983.50;;;3.11;78.21
59029;BME280;45919;51.420;5.454;2022-12-11T02:36:53;100945.44;;;2.89;78.07
59029;BME280;45919;51.420;5.454;2022-12-11T02:38:04;100925.19;;;2.78;78.36
59029;BME280;45919;51.420;5.454;2022-12-11T02:39:10;100989.53;;;3.11;77.88
59029;BME280;45919;51.420;5.454;2022-12-11T02:40:16;100993.00;;;3.12;77.98
59029;BME280;45919;51.420;5.454;2022-12-11T02:41:20;100982.63;;;3.10;78.21
59029;BME280;45919;51.420;5.454;2022-12-11T02:42:26;100985.25;;;3.12;78.32
59029;BME280;45919;51.420;5.454;2022-12-11T02:43:30;100985.19;;;3.10;78.11
59029;BME280;45919;51.420;5.454;2022-12-11T02:44:33;100990.28;;;3.09;77.95
59029;BME280;45919;51.420;5.454;2022-12-11T02:45:38;100982.69;;;3.12;77.78
59029;BME280;45919;51.420;5.454;2022-12-11T02:46:41;100978.34;;;3.11;78.03
59029;BME280;45919;51.420;5.454;2022-12-11T02:47:46;100988.75;;;3.13;77.92
59029;BME280;45919;51.420;5.454;2022-12-11T02:48:49;100984.44;;;3.13;78.02
59029;BME280;45919;51.420;5.454;2022-12-11T02:49:53;100981.00;;;3.13;78.45
59029;BME280;45919;51.420;5.454;2022-12-11T02:50:57;100982.69;;;3.12;78.02
59029;BME280;45919;51.420;5.454;2022-12-11T02:52:01;100981.84;;;3.13;78.24
59029;BME280;45919;51.420;5.454;2022-12-11T02:53:05;100910.09;;;2.69;78.24
59029;BME280;45919;51.420;5.454;2022-12-11T02:54:19;100986.59;;;3.22;78.39
59029;BME280;45919;51.420;5.454;2022-12-11T02:55:24;100989.03;;;3.19;78.26
59029;BME280;45919;51.420;5.454;2022-12-11T02:56:39;100988.38;;;3.23;78.08
59029;BME280;45919;51.420;5.454;2022-12-11T02:57:52;100985.84;;;3.25;78.03
59029;BME280;45919;51.420;5.454;2022-12-11T02:58:59;100980.41;;;3.18;78.21
59029;BME280;45919;51.420;5.454;2022-12-11T03:00:03;100983.00;;;3.18;77.85
59029;BME280;45919;51.420;5.454;2022-12-11T03:01:04;100982.09;;;3.18;77.78
59029;BME280;45919;51.420;5.454;2022-12-11T03:02:06;100977.81;;;3.18;77.87
59029;BME280;45919;51.420;5.454;2022-12-11T03:03:08;100981.19;;;3.17;77.83
59029;BME280;45919;51.420;5.454;2022-12-11T03:04:09;100981.13;;;3.16;77.99
59029;BME280;45919;51.420;5.454;2022-12-11T03:05:12;100978.63;;;3.17;78.17
59029;BME280;45919;51.420;5.454;2022-12-11T03:06:17;100977.00;;;3.19;77.81
59029;BME280;45919;51.420;5.454;2022-12-11T03:07:24;100940.88;;;3.01;78.05
59029;BME280;45919;51.420;5.454;2022-12-11T03:08:26;100979.59;;;3.19;77.76
59029;BME280;45919;51.420;5.454;2022-12-11T03:09:28;100972.75;;;3.20;77.75
59029;BME280;45919;51.420;5.454;2022-12-11T03:10:29;100973.53;;;3.19;77.92
59029;BME280;45919;51.420;5.454;2022-12-11T03:11:31;100968.44;;;3.20;77.87
59029;BME280;45919;51.420;5.454;2022-12-11T03:12:35;100971.91;;;3.21;77.56
59029;BME280;45919;51.420;5.454;2022-12-11T03:13:39;100973.53;;;3.19;77.36
59029;BME280;45919;51.420;5.454;2022-12-11T03:14:42;100941.84;;;3.03;77.35
59029;BME280;45919;51.420;5.454;2022-12-11T03:19:39;100969.19;;;3.36;78.17
59029;BME280;45919;51.420;5.454;2022-12-11T03:20:44;100967.50;;;3.18;77.49
59029;BME280;45919;51.420;5.454;2022-12-11T03:22:09;100968.66;;;3.25;78.12
59029;BME280;45919;51.420;5.454;2022-12-11T03:23:29;100965.84;;;3.20;77.99
59029;BME280;45919;51.420;5.454;2022-12-11T03:25:03;100969.56;;;3.26;78.38
59029;BME280;45919;51.420;5.454;2022-12-11T03:26:10;100966.47;;;3.15;78.27
59029;BME280;45919;51.420;5.454;2022-12-11T03:28:23;100950.22;;;2.99;78.13
59029;BME280;45919;51.420;5.454;2022-12-11T03:29:33;100966.22;;;3.10;78.37
59029;BME280;45919;51.420;5.454;2022-12-11T03:30:37;100912.19;;;2.77;78.03
59029;BME280;45919;51.420;5.454;2022-12-11T03:31:44;100964.47;;;3.09;78.15
59029;BME280;45919;51.420;5.454;2022-12-11T03:32:55;100966.53;;;3.16;78.29
59029;BME280;45919;51.420;5.454;2022-12-11T03:34:02;100963.72;;;3.11;78.02
59029;BME280;45919;51.420;5.454;2022-12-11T03:36:15;100959.44;;;3.12;78.10
59029;BME280;45919;51.420;5.454;2022-12-11T03:37:18;100962.84;;;3.11;78.29
59029;BME280;45919;51.420;5.454;2022-12-11T03:38:30;100959.59;;;3.15;78.22
59029;BME280;45919;51.420;5.454;2022-12-11T03:39:38;100917.84;;;2.87;78.19
59029;BME280;45919;51.420;5.454;2022-12-11T03:40:42;100961.22;;;3.13;78.05
59029;BME280;45919;51.420;5.454;2022-12-11T03:41:47;100924.72;;;2.87;78.11
59029;BME280;45919;51.420;5.454;2022-12-11T03:42:52;100962.94;;;3.13;77.61
59029;BME280;45919;51.420;5.454;2022-12-11T03:43:57;100926.78;;;2.94;77.33
59029;BME280;45919;51.420;5.454;2022-12-11T03:45:00;100953.41;;;3.11;77.43
59029;BME280;45919;51.420;5.454;2022-12-11T03:46:03;100947.28;;;3.09;77.49
59029;BME280;45919;51.420;5.454;2022-12-11T03:47:07;100945.66;;;3.11;77.92
59029;BME280;45919;51.420;5.454;2022-12-11T03:48:10;100943.97;;;3.12;77.44
59029;BME280;45919;51.420;5.454;2022-12-11T03:49:20;100951.13;;;3.18;77.19
59029;BME280;45919;51.420;5.454;2022-12-11T03:50:23;100955.38;;;3.35;77.59
59029;BME280;45919;51.420;5.454;2022-12-11T03:51:28;100926.41;;;3.05;76.47
59029;BME280;45919;51.420;5.454;2022-12-11T03:52:32;100804.38;;;2.33;76.37
59029;BME280;45919;51.420;5.454;2022-12-11T03:53:35;100943.06;;;3.11;76.53
59029;BME280;45919;51.420;5.454;2022-12-11T03:54:39;100940.50;;;3.11;76.67
59029;BME280;45919;51.420;5.454;2022-12-11T03:55:41;100942.28;;;3.13;76.55
59029;BME280;45919;51.420;5.454;2022-12-11T03:56:44;100936.28;;;3.14;76.49
59029;BME280;45919;51.420;5.454;2022-12-11T03:57:46;100901.97;;;2.96;76.21
59029;BME280;45919;51.420;5.454;2022-12-11T03:58:48;100928.53;;;3.14;76.50
59029;BME280;45919;51.420;5.454;2022-12-11T03:59:50;100937.25;;;3.16;76.55
59029;BME280;45919;51.420;5.454;2022-12-11T04:00:51;100939.84;;;3.16;76.47
59029;BME280;45919;51.420;5.454;2022-12-11T04:01:53;100938.88;;;3.14;75.93
59029;BME280;45919;51.420;5.454;2022-12-11T04:02:54;100942.34;;;3.14;76.27
59029;BME280;45919;51.420;5.454;2022-12-11T04:04:17;100937.44;;;3.20;75.78
59029;BME280;45919;51.420;5.454;2022-12-11T04:05:18;100937.31;;;3.17;75.94
59029;BME280;45919;51.420;5.454;2022-12-11T04:06:20;100932.97;;;3.16;75.66
59029;BME280;45919;51.420;5.454;2022-12-11T04:07:22;100945.97;;;3.18;75.85
59029;BME280;45919;51.420;5.454;2022-12-11T04:08:23;100935.75;;;3.21;75.73
59029;BME280;45919;51.420;5.454;2022-12-11T04:09:25;100942.63;;;3.20;75.68
59029;BME280;45919;51.420;5.454;2022-12-11T04:10:26;100942.63;;;3.20;75.05
59029;BME280;45919;51.420;5.454;2022-12-11T04:11:28;100938.34;;;3.21;75.79
59029;BME280;45919;51.420;5.454;2022-12-11T04:12:36;100934.66;;;3.16;75.11
59029;BME280;45919;51.420;5.454;2022-12-11T04:13:38;100946.84;;;3.18;74.85
59029;BME280;45919;51.420;5.454;2022-12-11T04:14:40;100942.47;;;3.17;74.38
59029;BME280;45919;51.420;5.454;2022-12-11T04:16:00;100919.63;;;3.07;74.06
59029;BME280;45919;51.420;5.454;2022-12-11T04:17:02;100940.66;;;3.15;74.44
59029;BME280;45919;51.420;5.454;2022-12-11T04:18:04;100919.25;;;2.99;74.49
59029;BME280;45919;51.420;5.454;2022-12-11T04:19:25;100939.75;;;3.14;74.09
59029;BME280;45919;51.420;5.454;2022-12-11T04:20:45;100922.75;;;2.99;74.37
59029;BME280;45919;51.420;5.454;2022-12-11T04:22:06;100905.97;;;2.91;74.46
59029;BME280;45919;51.420;5.454;2022-12-11T04:23:28;100934.09;;;3.03;74.23
59029;BME280;45919;51.420;5.454;2022-12-11T04:24:49;100947.38;;;3.11;74.04
59029;BME280;45919;51.420;5.454;2022-12-11T04:25:51;100939.47;;;3.08;74.24
59029;BME280;45919;51.420;5.454;2022-12-11T04:26:52;100941.97;;;3.06;74.54
59029;BME280;45919;51.420;5.454;2022-12-11T04:27:54;100942.03;;;3.08;74.39
59029;BME280;45919;51.420;5.454;2022-12-11T04:28:55;100945.50;;;3.08;74.47
59029;BME280;45919;51.420;5.454;2022-12-11T04:29:57;100942.78;;;3.05;74.16
59029;BME280;45919;51.420;5.454;2022-12-11T04:30:58;100942.78;;;3.05;74.42
59029;BME280;45919;51.420;5.454;2022-12-11T04:32:00;100941.91;;;3.05;74.41
59029;BME280;45919;51.420;5.454;2022-12-11T04:33:02;100936.75;;;3.05;74.30
59029;BME280;45919;51.420;5.454;2022-12-11T04:34:04;100928.03;;;3.03;74.07
59029;BME280;45919;51.420;5.454;2022-12-11T04:35:08;100931.56;;;3.05;73.96
59029;BME280;45919;51.420;5.454;2022-12-11T04:36:11;100935.84;;;3.04;74.14
59029;BME280;45919;51.420;5.454;2022-12-11T04:37:13;100934.97;;;3.04;74.21
59029;BME280;45919;51.420;5.454;2022-12-11T04:38:14;100937.47;;;3.02;73.88
59029;BME280;45919;51.420;5.454;2022-12-11T04:39:16;100936.59;;;3.02;74.09
59029;BME280;45919;51.420;5.454;2022-12-11T04:40:18;100937.47;;;3.02;74.21
59029;BME280;45919;51.420;5.454;2022-12-11T04:41:20;100941.75;;;3.02;74.57
59029;BME280;45919;51.420;5.454;2022-12-11T04:42:22;100944.41;;;3.03;74.44
59029;BME280;45919;51.420;5.454;2022-12-11T04:43:23;100939.25;;;3.03;74.15
59029;BME280;45919;51.420;5.454;2022-12-11T04:44:25;100942.72;;;3.04;73.59
59029;BME280;45919;51.420;5.454;2022-12-11T04:45:26;100939.19;;;3.02;74.05
59029;BME280;45919;51.420;5.454;2022-12-11T04:46:28;100937.31;;;2.99;73.88
59029;BME280;45919;51.420;5.454;2022-12-11T04:47:29;100936.44;;;2.98;73.78
59029;BME280;45919;51.420;5.454;2022-12-11T04:48:31;100886.16;;;2.72;73.64
59029;BME280;45919;51.420;5.454;2022-12-11T04:49:33;100935.50;;;2.96;73.49
59029;BME280;45919;51.420;5.454;2022-12-11T04:50:34;100909.97;;;2.84;74.17
59029;BME280;45919;51.420;5.454;2022-12-11T04:51:36;100930.25;;;2.95;74.02
59029;BME280;45919;51.420;5.454;2022-12-11T04:52:38;100922.44;;;2.93;74.29
59029;BME280;45919;51.420;5.454;2022-12-11T04:53:40;100926.72;;;2.93;74.02
59029;BME280;45919;51.420;5.454;2022-12-11T04:54:41;100927.59;;;2.93;74.26
59029;BME280;45919;51.420;5.454;2022-12-11T04:55:43;100930.34;;;2.96;73.86
59029;BME280;45919;51.420;5.454;2022-12-11T04:56:44;100925.97;;;2.95;73.90
59029;BME280;45919;51.420;5.454;2022-12-11T04:57:46;100927.81;;;2.98;73.64
59029;BME280;45919;51.420;5.454;2022-12-11T04:58:48;100927.91;;;2.99;73.05
59029;BME280;45919;51.420;5.454;2022-12-11T04:59:49;100923.53;;;2.98;72.31
59029;BME280;45919;51.420;5.454;2022-12-11T05:00:51;100922.50;;;2.95;72.22
59029;BME280;45919;51.420;5.454;2022-12-11T05:01:53;100919.06;;;2.94;72.49
59029;BME280;45919;51.420;5.454;2022-12-11T05:02:55;100920.03;;;2.96;72.42
59029;BME280;45919;51.420;5.454;2022-12-11T05:03:58;100926.09;;;2.98;72.76
59029;BME280;45919;51.420;5.454;2022-12-11T05:05:00;100926.94;;;2.97;73.07
59029;BME280;45919;51.420;5.454;2022-12-11T05:06:01;100920.94;;;2.98;73.02
59029;BME280;45919;51.420;5.454;2022-12-11T05:07:03;100924.41;;;2.99;73.19
59029;BME280;45919;51.420;5.454;2022-12-11T05:08:04;100920.88;;;2.97;72.78
59029;BME280;45919;51.420;5.454;2022-12-11T05:09:10;100921.97;;;3.02;72.86
59029;BME280;45919;51.420;5.454;2022-12-11T05:10:12;100915.06;;;3.01;72.89
59029;BME280;45919;51.420;5.454;2022-12-11T05:11:14;100876.16;;;2.78;72.38
59029;BME280;45919;51.420;5.454;2022-12-11T05:12:16;100908.94;;;2.99;72.35
59029;BME280;45919;51.420;5.454;2022-12-11T05:13:17;100914.09;;;2.99;72.37
59029;BME280;45919;51.420;5.454;2022-12-11T05:14:20;100919.25;;;2.99;72.62
59029;BME280;45919;51.420;5.454;2022-12-11T05:15:21;100915.72;;;2.97;71.81
59029;BME280;45919;51.420;5.454;2022-12-11T05:16:23;100913.22;;;2.98;72.09
59029;BME280;45919;51.420;5.454;2022-12-11T05:17:24;100916.75;;;3.01;72.17
59029;BME280;45919;51.420;5.454;2022-12-11T05:18:26;100908.94;;;2.99;71.46
59029;BME280;45919;51.420;5.454;2022-12-11T05:19:27;100912.41;;;2.99;72.49
59029;BME280;45919;51.420;5.454;2022-12-11T05:20:29;100908.16;;;3.00;72.23
59029;BME280;45919;51.420;5.454;2022-12-11T05:21:30;100905.31;;;2.95;71.91
59029;BME280;45919;51.420;5.454;2022-12-11T05:22:36;100916.69;;;2.99;72.29
59029;BME280;45919;51.420;5.454;2022-12-11T05:23:37;100911.66;;;3.02;72.13
59029;BME280;45919;51.420;5.454;2022-12-11T05:24:40;100908.16;;;3.00;71.59
59029;BME280;45919;51.420;5.454;2022-12-11T05:25:41;100904.53;;;2.96;71.54
59029;BME280;45919;51.420;5.454;2022-12-11T05:26:43;100901.00;;;2.94;71.68
59029;BME280;45919;51.420;5.454;2022-12-11T05:27:44;100886.75;;;2.84;72.33
59029;BME280;45919;51.420;5.454;2022-12-11T05:28:50;100907.31;;;3.01;72.25
59029;BME280;45919;51.420;5.454;2022-12-11T05:29:53;100908.16;;;3.00;71.87
59029;BME280;45919;51.420;5.454;2022-12-11T05:31:04;100905.78;;;3.05;72.75
59029;BME280;45919;51.420;5.454;2022-12-11T05:32:06;100909.00;;;3.01;72.10
59029;BME280;45919;51.420;5.454;2022-12-11T05:33:08;100908.34;;;3.05;72.63
59029;BME280;45919;51.420;5.454;2022-12-11T05:34:10;100900.53;;;3.03;72.47
59029;BME280;45919;51.420;5.454;2022-12-11T05:35:11;100901.50;;;3.05;72.32
59029;BME280;45919;51.420;5.454;2022-12-11T05:36:24;100905.19;;;3.10;72.20
59029;BME280;45919;51.420;5.454;2022-12-11T05:37:26;100903.25;;;3.06;72.23
59029;BME280;45919;51.420;5.454;2022-12-11T05:38:28;100906.72;;;3.07;71.95
59029;BME280;45919;51.420;5.454;2022-12-11T05:39:29;100898.09;;;3.06;72.07
59029;BME280;45919;51.420;5.454;2022-12-11T05:40:31;100900.75;;;3.08;72.17
59029;BME280;45919;51.420;5.454;2022-12-11T05:41:33;100908.47;;;3.08;71.97
59029;BME280;45919;51.420;5.454;2022-12-11T05:42:34;100911.13;;;3.09;72.18
59029;BME280;45919;51.420;5.454;2022-12-11T05:43:36;100878.72;;;2.96;72.15
59029;BME280;45919;51.420;5.454;2022-12-11T05:44:37;100908.66;;;3.11;72.10
59029;BME280;45919;51.420;5.454;2022-12-11T05:45:39;100910.34;;;3.10;72.25
59029;BME280;45919;51.420;5.454;2022-12-11T05:46:40;100914.53;;;3.08;71.43
59029;BME280;45919;51.420;5.454;2022-12-11T05:47:42;100909.44;;;3.10;71.42
59029;BME280;45919;51.420;5.454;2022-12-11T05:48:46;100916.53;;;3.14;71.88
59029;BME280;45919;51.420;5.454;2022-12-11T05:49:48;100907.81;;;3.12;71.40
59029;BME280;45919;51.420;5.454;2022-12-11T05:51:00;100919.47;;;3.22;71.60
59029;BME280;45919;51.420;5.454;2022-12-11T05:52:02;100876.94;;;2.95;71.78
59029;BME280;45919;51.420;5.454;2022-12-11T05:53:04;100913.88;;;3.13;71.55
59029;BME280;45919;51.420;5.454;2022-12-11T05:54:06;100879.09;;;2.86;71.68
59029;BME280;45919;51.420;5.454;2022-12-11T05:55:07;100911.31;;;3.13;71.81
59029;BME280;45919;51.420;5.454;2022-12-11T05:56:21;100910.34;;;3.10;71.46
59029;BME280;45919;51.420;5.454;2022-12-11T05:57:23;100891.69;;;2.98;71.09